sensor_id;sensor_type;location;lat;lon;timestamp;P1;durP1;ratioP1;P2;durP2;ratioP2
74483;SDS011;62942;52.462;10.846;2023-02-24T00:00:22;3.6;;;21.2;;
74483;SDS011;62942;52.462;10.846;2023-02-24T00:01:22;3.6;;;19.4;;
74483;SDS011;62942;52.462;10.846;2023-02-24T00:02:22;3.2;;;19.5;;
74483;SDS011;62942;52.462;10.846;2023-02-24T00:03:32;3.9;;;21.6;;
74483;SDS011;62942;52.462;10.846;2023-02-24T00:04:33;3.8;;;21.9;;
74483;SDS011;62942;52.462;10.846;2023-02-24T00:05:33;3.8;;;19.3;;
74483;SDS011;62942;52.462;10.846;2023-02-24T00:06:42;3.6;;;22.3;;
74483;SDS011;62942;52.462;10.846;2023-02-24T00:07:52;3.4;;;21.8;;
74483;SDS011;62942;52.462;10.846;2023-02-24T00:08:52;3.5;;;21.1;;
74483;SDS011;62942;52.462;10.846;2023-02-24T00:09:52;3.6;;;22.8;;
74483;SDS011;62942;52.462;10.846;2023-02-24T00:11:05;3.4;;;19.8;;
74483;SDS011;62942;52.462;10.846;2023-02-24T00:12:03;3.8;;;23.4;;
74483;SDS011;62942;52.462;10.846;2023-02-24T00:13:02;3.4;;;20.3;;
74483;SDS011;62942;52.462;10.846;2023-02-24T00:14:03;3.7;;;24.3;;
74483;SDS011;62942;52.462;10.846;2023-02-24T00:15:12;3.8;;;20.9;;
74483;SDS011;62942;52.462;10.846;2023-02-24T00:16:13;4.1;;;22.7;;
74483;SDS011;62942;52.462;10.846;2023-02-24T00:17:22;3.6;;;20.6;;
74483;SDS011;62942;52.462;10.846;2023-02-24T00:18:22;3.7;;;22.8;;
74483;SDS011;62942;52.462;10.846;2023-02-24T00:19:23;3.9;;;21.8;;
74483;SDS011;62942;52.462;10.846;2023-02-24T00:20:32;3.5;;;18.9;;
74483;SDS011;62942;52.462;10.846;2023-02-24T00:21:32;3.6;;;23.7;;
74483;SDS011;62942;52.462;10.846;2023-02-24T00:22:42;3.6;;;20.7;;
74483;SDS011;62942;52.462;10.846;2023-02-24T00:23:52;3.7;;;21.6;;
74483;SDS011;62942;52.462;10.846;2023-02-24T00:24:52;3.7;;;20.5;;
74483;SDS011;62942;52.462;10.846;2023-02-24T00:26:02;4.4;;;21.2;;
74483;SDS011;62942;52.462;10.846;2023-02-24T00:27:12;3.7;;;22.2;;
74483;SDS011;62942;52.462;10.846;2023-02-24T00:28:12;3.8;;;25.8;;
74483;SDS011;62942;52.462;10.846;2023-02-24T00:29:22;3.7;;;22.2;;
74483;SDS011;62942;52.462;10.846;2023-02-24T00:30:32;3.5;;;20.3;;
74483;SDS011;62942;52.462;10.846;2023-02-24T00:31:32;3.6;;;21.5;;
74483;SDS011;62942;52.462;10.846;2023-02-24T00:32:42;3.6;;;20.9;;
74483;SDS011;62942;52.462;10.846;2023-02-24T00:33:43;4.1;;;23.4;;
74483;SDS011;62942;52.462;10.846;2023-02-24T00:34:42;3.5;;;19.3;;
74483;SDS011;62942;52.462;10.846;2023-02-24T00:35:52;3.8;;;21.9;;
74483;SDS011;62942;52.462;10.846;2023-02-24T00:37:02;3.9;;;19.8;;
74483;SDS011;62942;52.462;10.846;2023-02-24T00:38:12;3.8;;;20.8;;
74483;SDS011;62942;52.462;10.846;2023-02-24T00:39:22;3.8;;;23.2;;
74483;SDS011;62942;52.462;10.846;2023-02-24T00:40:33;3.7;;;23.1;;
74483;SDS011;62942;52.462;10.846;2023-02-24T00:41:32;3.8;;;21.1;;
74483;SDS011;62942;52.462;10.846;2023-02-24T00:42:42;4;;;24.1;;
74483;SDS011;62942;52.462;10.846;2023-02-24T00:43:52;3.9;;;23.6;;
74483;SDS011;62942;52.462;10.846;2023-02-24T00:44:52;3.6;;;21.3;;
74483;SDS011;62942;52.462;10.846;2023-02-24T00:46:02;3.8;;;20.2;;
74483;SDS011;62942;52.462;10.846;2023-02-24T00:47:12;3.8;;;20.5;;
74483;SDS011;62942;52.462;10.846;2023-02-24T00:48:12;3.4;;;19.2;;
74483;SDS011;62942;52.462;10.846;2023-02-24T00:49:22;3.5;;;24.2;;
74483;SDS011;62942;52.462;10.846;2023-02-24T00:50:32;3.6;;;18.4;;
74483;SDS011;62942;52.462;10.846;2023-02-24T00:51:43;3.4;;;20.9;;
74483;SDS011;62942;52.462;10.846;2023-02-24T00:52:42;3.9;;;20.7;;
74483;SDS011;62942;52.462;10.846;2023-02-24T00:53:53;3.3;;;16.9;;
74483;SDS011;62942;52.462;10.846;2023-02-24T00:54:52;4.1;;;22.2;;
74483;SDS011;62942;52.462;10.846;2023-02-24T00:55:57;3.6;;;19.6;;
74483;SDS011;62942;52.462;10.846;2023-02-24T00:57:02;3.4;;;20;;
74483;SDS011;62942;52.462;10.846;2023-02-24T00:58:02;3.3;;;19.5;;
74483;SDS011;62942;52.462;10.846;2023-02-24T00:59:13;3.7;;;22.3;;
74483;SDS011;62942;52.462;10.846;2023-02-24T01:00:22;3.6;;;19.3;;
74483;SDS011;62942;52.462;10.846;2023-02-24T01:01:32;3.6;;;19;;
74483;SDS011;62942;52.462;10.846;2023-02-24T01:02:42;3.3;;;14.3;;
74483;SDS011;62942;52.462;10.846;2023-02-24T01:03:52;3.3;;;17.9;;
74483;SDS011;62942;52.462;10.846;2023-02-24T01:04:52;3.5;;;22.5;;
74483;SDS011;62942;52.462;10.846;2023-02-24T01:05:52;3.8;;;26.9;;
74483;SDS011;62942;52.462;10.846;2023-02-24T01:07:02;4;;;23.3;;
74483;SDS011;62942;52.462;10.846;2023-02-24T01:08:12;4;;;18.5;;
74483;SDS011;62942;52.462;10.846;2023-02-24T01:09:22;3.6;;;19.3;;
74483;SDS011;62942;52.462;10.846;2023-02-24T01:10:32;3.6;;;21.2;;
74483;SDS011;62942;52.462;10.846;2023-02-24T01:11:43;3.4;;;17.9;;
74483;SDS011;62942;52.462;10.846;2023-02-24T01:12:42;3.7;;;22.7;;
74483;SDS011;62942;52.462;10.846;2023-02-24T01:13:52;3.5;;;19.8;;
74483;SDS011;62942;52.462;10.846;2023-02-24T01:14:52;3.7;;;20.8;;
74483;SDS011;62942;52.462;10.846;2023-02-24T01:16:02;3.7;;;22.6;;
74483;SDS011;62942;52.462;10.846;2023-02-24T01:17:02;3.4;;;22;;
74483;SDS011;62942;52.462;10.846;2023-02-24T01:18:12;3.5;;;20.1;;
74483;SDS011;62942;52.462;10.846;2023-02-24T01:19:24;3.7;;;23.3;;
74483;SDS011;62942;52.462;10.846;2023-02-24T01:20:32;3.6;;;20.5;;
74483;SDS011;62942;52.462;10.846;2023-02-24T01:21:32;3.8;;;22.6;;
74483;SDS011;62942;52.462;10.846;2023-02-24T01:22:43;3.3;;;20.9;;
74483;SDS011;62942;52.462;10.846;2023-02-24T01:23:52;4;;;22;;
74483;SDS011;62942;52.462;10.846;2023-02-24T01:25:02;3.9;;;20.3;;
74483;SDS011;62942;52.462;10.846;2023-02-24T01:26:02;3.6;;;20.2;;
74483;SDS011;62942;52.462;10.846;2023-02-24T01:27:13;4;;;21.1;;
74483;SDS011;62942;52.462;10.846;2023-02-24T01:28:12;3.9;;;23.4;;
74483;SDS011;62942;52.462;10.846;2023-02-24T01:29:22;4;;;26.1;;
74483;SDS011;62942;52.462;10.846;2023-02-24T01:30:32;3.4;;;18.3;;
74483;SDS011;62942;52.462;10.846;2023-02-24T01:31:32;3.5;;;23.9;;
74483;SDS011;62942;52.462;10.846;2023-02-24T01:32:42;3.6;;;20;;
74483;SDS011;62942;52.462;10.846;2023-02-24T01:33:52;3.5;;;21.5;;
74483;SDS011;62942;52.462;10.846;2023-02-24T01:34:52;4.1;;;26.6;;
74483;SDS011;62942;52.462;10.846;2023-02-24T01:36:10;3.8;;;25.1;;
74483;SDS011;62942;52.462;10.846;2023-02-24T01:37:12;3.6;;;17.8;;
74483;SDS011;62942;52.462;10.846;2023-02-24T01:38:22;3.8;;;22.8;;
74483;SDS011;62942;52.462;10.846;2023-02-24T01:39:32;3.9;;;22.3;;
74483;SDS011;62942;52.462;10.846;2023-02-24T01:40:42;3.4;;;19.6;;
74483;SDS011;62942;52.462;10.846;2023-02-24T01:41:43;3.7;;;18.7;;
74483;SDS011;62942;52.462;10.846;2023-02-24T01:42:42;3.9;;;23.1;;
74483;SDS011;62942;52.462;10.846;2023-02-24T01:43:53;3.6;;;19.9;;
74483;SDS011;62942;52.462;10.846;2023-02-24T01:45:12;3.4;;;17.8;;
74483;SDS011;62942;52.462;10.846;2023-02-24T01:46:12;3.9;;;18.9;;
74483;SDS011;62942;52.462;10.846;2023-02-24T01:47:12;3.9;;;20.8;;
74483;SDS011;62942;52.462;10.846;2023-02-24T01:48:22;4;;;21;;
74483;SDS011;62942;52.462;10.846;2023-02-24T01:49:23;3.5;;;19.4;;
74483;SDS011;62942;52.462;10.846;2023-02-24T01:50:32;3.4;;;18.2;;
74483;SDS011;62942;52.462;10.846;2023-02-24T01:51:43;3.6;;;22.1;;
74483;SDS011;62942;52.462;10.846;2023-02-24T01:52:43;3.8;;;23.2;;
74483;SDS011;62942;52.462;10.846;2023-02-24T01:53:52;3.3;;;17.2;;
74483;SDS011;62942;52.462;10.846;2023-02-24T01:55:05;3.5;;;18;;
74483;SDS011;62942;52.462;10.846;2023-02-24T01:56:12;3;;;16.6;;
74483;SDS011;62942;52.462;10.846;2023-02-24T01:57:23;3.6;;;18.8;;
74483;SDS011;62942;52.462;10.846;2023-02-24T01:58:32;3.7;;;17.7;;
74483;SDS011;62942;52.462;10.846;2023-02-24T01:59:42;3.2;;;18.8;;
74483;SDS011;62942;52.462;10.846;2023-02-24T02:00:42;3.5;;;19.6;;
74483;SDS011;62942;52.462;10.846;2023-02-24T02:01:52;3.6;;;19.3;;
74483;SDS011;62942;52.462;10.846;2023-02-24T02:02:52;3.5;;;20.8;;
74483;SDS011;62942;52.462;10.846;2023-02-24T02:04:02;3.4;;;21;;
74483;SDS011;62942;52.462;10.846;2023-02-24T02:05:12;3.2;;;19.8;;
74483;SDS011;62942;52.462;10.846;2023-02-24T02:06:22;3.6;;;20.6;;
74483;SDS011;62942;52.462;10.846;2023-02-24T02:07:32;3.5;;;19;;
74483;SDS011;62942;52.462;10.846;2023-02-24T02:08:32;3.5;;;19;;
74483;SDS011;62942;52.462;10.846;2023-02-24T02:09:42;3.1;;;16.7;;
74483;SDS011;62942;52.462;10.846;2023-02-24T02:10:52;3.1;;;16;;
74483;SDS011;62942;52.462;10.846;2023-02-24T02:12:02;3;;;14.6;;
74483;SDS011;62942;52.462;10.846;2023-02-24T02:13:13;3.2;;;16.5;;
74483;SDS011;62942;52.462;10.846;2023-02-24T02:14:12;3.5;;;20.2;;
74483;SDS011;62942;52.462;10.846;2023-02-24T02:15:22;3.1;;;18.3;;
74483;SDS011;62942;52.462;10.846;2023-02-24T02:16:36;3.4;;;20;;
74483;SDS011;62942;52.462;10.846;2023-02-24T02:17:43;3;;;16.3;;
74483;SDS011;62942;52.462;10.846;2023-02-24T02:18:45;3.4;;;18.9;;
74483;SDS011;62942;52.462;10.846;2023-02-24T02:20:04;3.2;;;17;;
74483;SDS011;62942;52.462;10.846;2023-02-24T02:21:14;3.5;;;20.8;;
74483;SDS011;62942;52.462;10.846;2023-02-24T02:21:57;3.4;;;18.8;;
74483;SDS011;62942;52.462;10.846;2023-02-24T02:23:06;3.6;;;19.1;;
74483;SDS011;62942;52.462;10.846;2023-02-24T02:24:46;3.2;;;18.3;;
74483;SDS011;62942;52.462;10.846;2023-02-24T02:25:24;3.2;;;20.9;;
74483;SDS011;62942;52.462;10.846;2023-02-24T02:26:46;3.4;;;19.3;;
74483;SDS011;62942;52.462;10.846;2023-02-24T02:27:49;3.2;;;17;;
74483;SDS011;62942;52.462;10.846;2023-02-24T02:28:57;3.4;;;19.2;;
74483;SDS011;62942;52.462;10.846;2023-02-24T02:30:08;3.1;;;16.4;;
74483;SDS011;62942;52.462;10.846;2023-02-24T02:31:10;3.1;;;16.9;;
74483;SDS011;62942;52.462;10.846;2023-02-24T02:32:16;3.3;;;16.4;;
74483;SDS011;62942;52.462;10.846;2023-02-24T02:34:25;3.3;;;18.2;;
74483;SDS011;62942;52.462;10.846;2023-02-24T02:35:33;3.1;;;16.4;;
74483;SDS011;62942;52.462;10.846;2023-02-24T02:36:47;3.6;;;21.1;;
74483;SDS011;62942;52.462;10.846;2023-02-24T02:37:43;3.2;;;19.2;;
74483;SDS011;62942;52.462;10.846;2023-02-24T02:38:44;3;;;16.2;;
74483;SDS011;62942;52.462;10.846;2023-02-24T02:39:52;3.4;;;18.8;;
74483;SDS011;62942;52.462;10.846;2023-02-24T02:40:54;2.9;;;13.7;;
74483;SDS011;62942;52.462;10.846;2023-02-24T02:41:52;3.6;;;18;;
74483;SDS011;62942;52.462;10.846;2023-02-24T02:43:02;3.2;;;18.8;;
74483;SDS011;62942;52.462;10.846;2023-02-24T02:44:03;3.3;;;16.7;;
74483;SDS011;62942;52.462;10.846;2023-02-24T02:45:12;3.2;;;18.1;;
74483;SDS011;62942;52.462;10.846;2023-02-24T02:46:23;3.5;;;19.5;;
74483;SDS011;62942;52.462;10.846;2023-02-24T02:47:33;3.3;;;19;;
74483;SDS011;62942;52.462;10.846;2023-02-24T02:48:33;3.2;;;15.6;;
74483;SDS011;62942;52.462;10.846;2023-02-24T02:49:42;3.2;;;16.1;;
74483;SDS011;62942;52.462;10.846;2023-02-24T02:50:52;3.4;;;16;;
74483;SDS011;62942;52.462;10.846;2023-02-24T02:51:52;2.9;;;17.9;;
74483;SDS011;62942;52.462;10.846;2023-02-24T02:53:02;3.2;;;16.9;;
74483;SDS011;62942;52.462;10.846;2023-02-24T02:54:03;3.4;;;17.1;;
74483;SDS011;62942;52.462;10.846;2023-02-24T02:55:13;3.2;;;17.4;;
74483;SDS011;62942;52.462;10.846;2023-02-24T02:56:13;3;;;14.7;;
74483;SDS011;62942;52.462;10.846;2023-02-24T02:57:23;3.3;;;16.3;;
74483;SDS011;62942;52.462;10.846;2023-02-24T02:58:33;3.2;;;15.2;;
74483;SDS011;62942;52.462;10.846;2023-02-24T02:59:43;3.3;;;15.2;;
74483;SDS011;62942;52.462;10.846;2023-02-24T03:00:43;3.1;;;15.8;;
74483;SDS011;62942;52.462;10.846;2023-02-24T03:01:52;3.3;;;16.3;;
74483;SDS011;62942;52.462;10.846;2023-02-24T03:03:03;3.3;;;19.4;;
74483;SDS011;62942;52.462;10.846;2023-02-24T03:04:12;3.4;;;17.6;;
74483;SDS011;62942;52.462;10.846;2023-02-24T03:05:24;3;;;15.8;;
74483;SDS011;62942;52.462;10.846;2023-02-24T03:06:22;2.9;;;13.2;;
74483;SDS011;62942;52.462;10.846;2023-02-24T03:07:32;3.2;;;16.8;;
74483;SDS011;62942;52.462;10.846;2023-02-24T03:08:42;2.9;;;16.5;;
74483;SDS011;62942;52.462;10.846;2023-02-24T03:09:52;3.2;;;13.6;;
74483;SDS011;62942;52.462;10.846;2023-02-24T03:11:02;3;;;15.1;;
74483;SDS011;62942;52.462;10.846;2023-02-24T03:12:13;2.9;;;15.2;;
74483;SDS011;62942;52.462;10.846;2023-02-24T03:13:23;3.1;;;16.2;;
74483;SDS011;62942;52.462;10.846;2023-02-24T03:14:32;2.9;;;16.7;;
74483;SDS011;62942;52.462;10.846;2023-02-24T03:15:42;3;;;16.8;;
74483;SDS011;62942;52.462;10.846;2023-02-24T03:16:52;2.9;;;17.1;;
74483;SDS011;62942;52.462;10.846;2023-02-24T03:18:03;2.9;;;16.8;;
74483;SDS011;62942;52.462;10.846;2023-02-24T03:19:12;2.8;;;13.9;;
74483;SDS011;62942;52.462;10.846;2023-02-24T03:20:22;3.1;;;18.9;;
74483;SDS011;62942;52.462;10.846;2023-02-24T03:21:32;2.8;;;14.6;;
74483;SDS011;62942;52.462;10.846;2023-02-24T03:22:44;2.9;;;14.5;;
74483;SDS011;62942;52.462;10.846;2023-02-24T03:23:52;2.9;;;13.9;;
74483;SDS011;62942;52.462;10.846;2023-02-24T03:24:52;3;;;16.1;;
74483;SDS011;62942;52.462;10.846;2023-02-24T03:26:03;2.7;;;13.7;;
74483;SDS011;62942;52.462;10.846;2023-02-24T03:27:12;2.8;;;15.7;;
74483;SDS011;62942;52.462;10.846;2023-02-24T03:28:23;2.8;;;14.7;;
74483;SDS011;62942;52.462;10.846;2023-02-24T03:29:23;2.8;;;15.8;;
74483;SDS011;62942;52.462;10.846;2023-02-24T03:30:34;2.9;;;16.6;;
74483;SDS011;62942;52.462;10.846;2023-02-24T03:31:32;2.7;;;15.6;;
74483;SDS011;62942;52.462;10.846;2023-02-24T03:32:42;2.5;;;12.8;;
74483;SDS011;62942;52.462;10.846;2023-02-24T03:33:54;2.4;;;13;;
74483;SDS011;62942;52.462;10.846;2023-02-24T03:35:02;2.8;;;12.4;;
74483;SDS011;62942;52.462;10.846;2023-02-24T03:36:12;2.8;;;14.7;;
74483;SDS011;62942;52.462;10.846;2023-02-24T03:37:22;2.7;;;15.3;;
74483;SDS011;62942;52.462;10.846;2023-02-24T03:38:32;2.7;;;12.4;;
74483;SDS011;62942;52.462;10.846;2023-02-24T03:39:32;2.4;;;11.5;;
74483;SDS011;62942;52.462;10.846;2023-02-24T03:40:42;2.8;;;16.7;;
74483;SDS011;62942;52.462;10.846;2023-02-24T03:41:53;3.3;;;17.2;;
74483;SDS011;62942;52.462;10.846;2023-02-24T03:43:02;2.5;;;14.3;;
74483;SDS011;62942;52.462;10.846;2023-02-24T03:44:12;2.6;;;13.7;;
74483;SDS011;62942;52.462;10.846;2023-02-24T03:45:22;2.6;;;12.5;;
74483;SDS011;62942;52.462;10.846;2023-02-24T03:46:32;2.7;;;12.4;;
74483;SDS011;62942;52.462;10.846;2023-02-24T03:47:42;2.6;;;14.5;;
74483;SDS011;62942;52.462;10.846;2023-02-24T03:48:53;2.6;;;12.6;;
74483;SDS011;62942;52.462;10.846;2023-02-24T03:50:03;2.9;;;16.9;;
74483;SDS011;62942;52.462;10.846;2023-02-24T03:51:13;2.7;;;13.9;;
74483;SDS011;62942;52.462;10.846;2023-02-24T03:52:14;2.4;;;13.4;;
74483;SDS011;62942;52.462;10.846;2023-02-24T03:53:25;2.5;;;11.4;;
74483;SDS011;62942;52.462;10.846;2023-02-24T03:54:37;2.6;;;13.6;;
74483;SDS011;62942;52.462;10.846;2023-02-24T03:55:44;2.4;;;12.8;;
74483;SDS011;62942;52.462;10.846;2023-02-24T03:56:53;2.4;;;13.5;;
74483;SDS011;62942;52.462;10.846;2023-02-24T03:57:55;2.3;;;14.1;;
74483;SDS011;62942;52.462;10.846;2023-02-24T03:59:06;2.6;;;14.9;;
74483;SDS011;62942;52.462;10.846;2023-02-24T04:00:03;2.1;;;11.2;;
74483;SDS011;62942;52.462;10.846;2023-02-24T04:01:12;2.4;;;14;;
74483;SDS011;62942;52.462;10.846;2023-02-24T04:02:22;2.5;;;11;;
74483;SDS011;62942;52.462;10.846;2023-02-24T04:03:32;2.6;;;14.5;;
74483;SDS011;62942;52.462;10.846;2023-02-24T04:04:42;2.2;;;13.4;;
74483;SDS011;62942;52.462;10.846;2023-02-24T04:05:43;2.6;;;13.7;;
74483;SDS011;62942;52.462;10.846;2023-02-24T04:06:53;2.3;;;11.1;;
74483;SDS011;62942;52.462;10.846;2023-02-24T04:08:02;2.1;;;10.1;;
74483;SDS011;62942;52.462;10.846;2023-02-24T04:09:03;2.2;;;12.3;;
74483;SDS011;62942;52.462;10.846;2023-02-24T04:10:12;2.2;;;10.4;;
74483;SDS011;62942;52.462;10.846;2023-02-24T04:11:13;2.6;;;13.7;;
74483;SDS011;62942;52.462;10.846;2023-02-24T04:12:13;2;;;11.2;;
74483;SDS011;62942;52.462;10.846;2023-02-24T04:13:24;2.2;;;10.5;;
74483;SDS011;62942;52.462;10.846;2023-02-24T04:14:23;1.8;;;10;;
74483;SDS011;62942;52.462;10.846;2023-02-24T04:15:32;2.1;;;11.5;;
74483;SDS011;62942;52.462;10.846;2023-02-24T04:16:33;2;;;10.5;;
74483;SDS011;62942;52.462;10.846;2023-02-24T04:17:42;2.2;;;11.1;;
74483;SDS011;62942;52.462;10.846;2023-02-24T04:18:52;2.1;;;9.9;;
74483;SDS011;62942;52.462;10.846;2023-02-24T04:20:02;2.3;;;12.8;;
74483;SDS011;62942;52.462;10.846;2023-02-24T04:21:12;2.4;;;12.5;;
74483;SDS011;62942;52.462;10.846;2023-02-24T04:22:12;2.2;;;10.1;;
74483;SDS011;62942;52.462;10.846;2023-02-24T04:23:12;2.3;;;12.1;;
74483;SDS011;62942;52.462;10.846;2023-02-24T04:24:12;2;;;9.1;;
74483;SDS011;62942;52.462;10.846;2023-02-24T04:25:22;2.3;;;12;;
74483;SDS011;62942;52.462;10.846;2023-02-24T04:26:32;2.1;;;9.4;;
74483;SDS011;62942;52.462;10.846;2023-02-24T04:27:42;2.1;;;10.4;;
74483;SDS011;62942;52.462;10.846;2023-02-24T04:28:42;2.5;;;13.4;;
74483;SDS011;62942;52.462;10.846;2023-02-24T04:29:52;2.1;;;9.6;;
74483;SDS011;62942;52.462;10.846;2023-02-24T04:30:53;2.4;;;12.5;;
74483;SDS011;62942;52.462;10.846;2023-02-24T04:32:02;2.4;;;9.8;;
74483;SDS011;62942;52.462;10.846;2023-02-24T04:33:12;2.3;;;11.8;;
74483;SDS011;62942;52.462;10.846;2023-02-24T04:34:22;2.2;;;11.6;;
74483;SDS011;62942;52.462;10.846;2023-02-24T04:35:32;2.3;;;10.8;;
74483;SDS011;62942;52.462;10.846;2023-02-24T04:36:32;1.9;;;10.6;;
74483;SDS011;62942;52.462;10.846;2023-02-24T04:37:42;2.3;;;9.4;;
74483;SDS011;62942;52.462;10.846;2023-02-24T04:38:42;2.3;;;11.3;;
74483;SDS011;62942;52.462;10.846;2023-02-24T04:39:52;2.2;;;11.3;;
74483;SDS011;62942;52.462;10.846;2023-02-24T04:41:02;2.2;;;11.4;;
74483;SDS011;62942;52.462;10.846;2023-02-24T04:42:12;2.6;;;15.2;;
74483;SDS011;62942;52.462;10.846;2023-02-24T04:43:12;2.4;;;15.1;;
74483;SDS011;62942;52.462;10.846;2023-02-24T04:44:22;2.2;;;9.4;;
74483;SDS011;62942;52.462;10.846;2023-02-24T04:45:32;2.5;;;12.5;;
74483;SDS011;62942;52.462;10.846;2023-02-24T04:46:32;2.2;;;10.7;;
74483;SDS011;62942;52.462;10.846;2023-02-24T04:47:42;2.3;;;12.1;;
74483;SDS011;62942;52.462;10.846;2023-02-24T04:48:52;2.1;;;9.1;;
74483;SDS011;62942;52.462;10.846;2023-02-24T04:49:52;2.1;;;8.9;;
74483;SDS011;62942;52.462;10.846;2023-02-24T04:51:02;2;;;8.8;;
74483;SDS011;62942;52.462;10.846;2023-02-24T04:52:12;2.3;;;10.6;;
74483;SDS011;62942;52.462;10.846;2023-02-24T04:53:22;2.2;;;8.8;;
74483;SDS011;62942;52.462;10.846;2023-02-24T04:54:32;2.3;;;10.2;;
74483;SDS011;62942;52.462;10.846;2023-02-24T04:55:33;2.6;;;12.1;;
74483;SDS011;62942;52.462;10.846;2023-02-24T04:56:32;2.2;;;12.2;;
74483;SDS011;62942;52.462;10.846;2023-02-24T04:57:42;2.3;;;9.2;;
74483;SDS011;62942;52.462;10.846;2023-02-24T04:58:52;2.2;;;10.6;;
74483;SDS011;62942;52.462;10.846;2023-02-24T04:59:52;2.2;;;11.5;;
74483;SDS011;62942;52.462;10.846;2023-02-24T05:01:05;2.1;;;9.3;;
74483;SDS011;62942;52.462;10.846;2023-02-24T05:02:12;2.3;;;12.5;;
74483;SDS011;62942;52.462;10.846;2023-02-24T05:03:12;2.4;;;11.9;;
74483;SDS011;62942;52.462;10.846;2023-02-24T05:04:22;2.2;;;9.7;;
74483;SDS011;62942;52.462;10.846;2023-02-24T05:05:32;2.2;;;9.1;;
74483;SDS011;62942;52.462;10.846;2023-02-24T05:06:32;2.3;;;10.6;;
74483;SDS011;62942;52.462;10.846;2023-02-24T05:07:42;2.2;;;9.5;;
74483;SDS011;62942;52.462;10.846;2023-02-24T05:08:52;2;;;7.9;;
74483;SDS011;62942;52.462;10.846;2023-02-24T05:09:51;2.3;;;10.2;;
74483;SDS011;62942;52.462;10.846;2023-02-24T05:11:02;2.1;;;9.4;;
74483;SDS011;62942;52.462;10.846;2023-02-24T05:12:02;2.3;;;10.4;;
74483;SDS011;62942;52.462;10.846;2023-02-24T05:13:12;2.3;;;13.4;;
74483;SDS011;62942;52.462;10.846;2023-02-24T05:14:22;1.9;;;8.1;;
74483;SDS011;62942;52.462;10.846;2023-02-24T05:15:32;2.2;;;11.2;;
74483;SDS011;62942;52.462;10.846;2023-02-24T05:16:31;2.1;;;8.1;;
74483;SDS011;62942;52.462;10.846;2023-02-24T05:17:31;2.3;;;12;;
74483;SDS011;62942;52.462;10.846;2023-02-24T05:18:42;2.1;;;9;;
74483;SDS011;62942;52.462;10.846;2023-02-24T05:19:42;2.4;;;10.8;;
74483;SDS011;62942;52.462;10.846;2023-02-24T05:20:52;2.2;;;9.5;;
74483;SDS011;62942;52.462;10.846;2023-02-24T05:21:51;2.4;;;12;;
74483;SDS011;62942;52.462;10.846;2023-02-24T05:22:52;2.2;;;10.9;;
74483;SDS011;62942;52.462;10.846;2023-02-24T05:24:02;2.3;;;10.5;;
74483;SDS011;62942;52.462;10.846;2023-02-24T05:25:12;2.2;;;10;;
74483;SDS011;62942;52.462;10.846;2023-02-24T05:26:22;2.3;;;9;;
74483;SDS011;62942;52.462;10.846;2023-02-24T05:27:22;2.2;;;11.8;;
74483;SDS011;62942;52.462;10.846;2023-02-24T05:28:31;2.3;;;11.8;;
74483;SDS011;62942;52.462;10.846;2023-02-24T05:29:33;2;;;9.7;;
74483;SDS011;62942;52.462;10.846;2023-02-24T05:30:41;2.5;;;12.3;;
74483;SDS011;62942;52.462;10.846;2023-02-24T05:31:42;1.9;;;7.5;;
74483;SDS011;62942;52.462;10.846;2023-02-24T05:32:41;2.4;;;11.7;;
74483;SDS011;62942;52.462;10.846;2023-02-24T05:33:52;2.6;;;9.6;;
74483;SDS011;62942;52.462;10.846;2023-02-24T05:34:51;2.4;;;9.2;;
74483;SDS011;62942;52.462;10.846;2023-02-24T05:35:51;2.4;;;11.9;;
74483;SDS011;62942;52.462;10.846;2023-02-24T05:37:02;2.3;;;10;;
74483;SDS011;62942;52.462;10.846;2023-02-24T05:38:11;2.1;;;9.1;;
74483;SDS011;62942;52.462;10.846;2023-02-24T05:39:21;2.1;;;12;;
74483;SDS011;62942;52.462;10.846;2023-02-24T05:40:31;1.9;;;10.2;;
74483;SDS011;62942;52.462;10.846;2023-02-24T05:41:41;2.1;;;8.5;;
74483;SDS011;62942;52.462;10.846;2023-02-24T05:42:51;2;;;9.5;;
74483;SDS011;62942;52.462;10.846;2023-02-24T05:44:02;2.2;;;9.1;;
74483;SDS011;62942;52.462;10.846;2023-02-24T05:45:02;2.2;;;11.9;;
74483;SDS011;62942;52.462;10.846;2023-02-24T05:46:01;2.1;;;8.8;;
74483;SDS011;62942;52.462;10.846;2023-02-24T05:47:11;2.1;;;8.6;;
74483;SDS011;62942;52.462;10.846;2023-02-24T05:48:21;2.7;;;13.3;;
74483;SDS011;62942;52.462;10.846;2023-02-24T05:49:33;2.1;;;7.5;;
74483;SDS011;62942;52.462;10.846;2023-02-24T05:50:41;2.3;;;9.3;;
74483;SDS011;62942;52.462;10.846;2023-02-24T05:51:52;2.6;;;10.9;;
74483;SDS011;62942;52.462;10.846;2023-02-24T05:53:01;2.3;;;8.4;;
74483;SDS011;62942;52.462;10.846;2023-02-24T05:54:02;2.2;;;9.2;;
74483;SDS011;62942;52.462;10.846;2023-02-24T05:55:02;2;;;6.8;;
74483;SDS011;62942;52.462;10.846;2023-02-24T05:56:11;2.3;;;8.9;;
74483;SDS011;62942;52.462;10.846;2023-02-24T05:57:12;2;;;8;;
74483;SDS011;62942;52.462;10.846;2023-02-24T05:58:21;1.8;;;7.4;;
74483;SDS011;62942;52.462;10.846;2023-02-24T05:59:32;2;;;7.7;;
74483;SDS011;62942;52.462;10.846;2023-02-24T06:00:31;1.8;;;6.4;;
74483;SDS011;62942;52.462;10.846;2023-02-24T06:01:41;1.9;;;7.2;;
74483;SDS011;62942;52.462;10.846;2023-02-24T06:02:51;2;;;8;;
74483;SDS011;62942;52.462;10.846;2023-02-24T06:04:02;2.2;;;10.2;;
74483;SDS011;62942;52.462;10.846;2023-02-24T06:05:02;2.1;;;7.7;;
74483;SDS011;62942;52.462;10.846;2023-02-24T06:06:02;1.9;;;8.5;;
74483;SDS011;62942;52.462;10.846;2023-02-24T06:07:12;1.9;;;7.6;;
74483;SDS011;62942;52.462;10.846;2023-02-24T06:08:21;2.1;;;9.8;;
74483;SDS011;62942;52.462;10.846;2023-02-24T06:09:31;2.2;;;8.7;;
74483;SDS011;62942;52.462;10.846;2023-02-24T06:10:42;2.1;;;10;;
74483;SDS011;62942;52.462;10.846;2023-02-24T06:11:52;1.9;;;8.4;;
74483;SDS011;62942;52.462;10.846;2023-02-24T06:13:02;1.9;;;7.9;;
74483;SDS011;62942;52.462;10.846;2023-02-24T06:14:11;1.8;;;7.2;;
74483;SDS011;62942;52.462;10.846;2023-02-24T06:15:21;2.3;;;10.8;;
74483;SDS011;62942;52.462;10.846;2023-02-24T06:16:31;2.2;;;10.2;;
74483;SDS011;62942;52.462;10.846;2023-02-24T06:17:31;1.9;;;10.2;;
74483;SDS011;62942;52.462;10.846;2023-02-24T06:18:31;2.2;;;9.2;;
74483;SDS011;62942;52.462;10.846;2023-02-24T06:19:41;1.9;;;8.2;;
74483;SDS011;62942;52.462;10.846;2023-02-24T06:20:41;1.9;;;7.8;;
74483;SDS011;62942;52.462;10.846;2023-02-24T06:21:51;2;;;8.8;;
74483;SDS011;62942;52.462;10.846;2023-02-24T06:22:52;2.1;;;10.3;;
74483;SDS011;62942;52.462;10.846;2023-02-24T06:24:02;1.8;;;9.4;;
74483;SDS011;62942;52.462;10.846;2023-02-24T06:25:11;2.1;;;9;;
74483;SDS011;62942;52.462;10.846;2023-02-24T06:26:11;2;;;9.5;;
74483;SDS011;62942;52.462;10.846;2023-02-24T06:27:21;2.1;;;9.9;;
74483;SDS011;62942;52.462;10.846;2023-02-24T06:28:22;2;;;8.5;;
74483;SDS011;62942;52.462;10.846;2023-02-24T06:29:21;2;;;11.5;;
74483;SDS011;62942;52.462;10.846;2023-02-24T06:30:31;1.8;;;9.2;;
74483;SDS011;62942;52.462;10.846;2023-02-24T06:31:42;2;;;12.9;;
74483;SDS011;62942;52.462;10.846;2023-02-24T06:32:41;2.1;;;9.9;;
74483;SDS011;62942;52.462;10.846;2023-02-24T06:33:51;1.9;;;8.6;;
74483;SDS011;62942;52.462;10.846;2023-02-24T06:35:02;1.8;;;8.8;;
74483;SDS011;62942;52.462;10.846;2023-02-24T06:36:02;1.8;;;7.8;;
74483;SDS011;62942;52.462;10.846;2023-02-24T06:37:12;2;;;7.4;;
74483;SDS011;62942;52.462;10.846;2023-02-24T06:38:11;2.1;;;10.3;;
74483;SDS011;62942;52.462;10.846;2023-02-24T06:39:21;2.1;;;8.9;;
74483;SDS011;62942;52.462;10.846;2023-02-24T06:40:31;1.9;;;9.7;;
74483;SDS011;62942;52.462;10.846;2023-02-24T06:41:41;2;;;11.9;;
74483;SDS011;62942;52.462;10.846;2023-02-24T06:42:51;1.9;;;9.7;;
74483;SDS011;62942;52.462;10.846;2023-02-24T06:44:01;2.3;;;9.3;;
74483;SDS011;62942;52.462;10.846;2023-02-24T06:45:01;1.8;;;7.3;;
74483;SDS011;62942;52.462;10.846;2023-02-24T06:46:12;1.8;;;9.4;;